Time;durP1;ratioP1;P1;durP2;ratioP2;P2;SDS_P1;SDS_P2;PMS_P1;PMS_P2;Temp;Humidity;BMP_temperature;BMP_pressure;BME280_temperature;BME280_humidity;BME280_pressure;Samples;Min_cycle;Max_cycle;Signal;HPM_P1;HPM_P2
2022/06/05 00:02:01;;;;;;;7.57;5.80;;;15.60;99.90;;;;;;4990142;28;20050;-75
2022/06/05 00:04:45;;;;;;;7.40;5.05;;;15.50;99.90;;;;;;4985672;28;20030;-75
2022/06/05 00:07:17;;;;;;;7.50;5.80;;;15.50;99.90;;;;;;4986063;28;20026;-74
2022/06/05 00:09:57;;;;;;;8.23;5.72;;;15.40;99.90;;;;;;4985774;28;20026;-74
2022/06/05 00:12:39;;;;;;;8.43;6.60;;;15.40;99.90;;;;;;4985910;28;20026;-74
2022/06/05 00:15:05;;;;;;;10.20;6.60;;;15.40;99.90;;;;;;4983593;28;20045;-75
2022/06/05 00:17:31;;;;;;;10.32;7.60;;;15.40;99.90;;;;;;4980432;28;20078;-75
2022/06/05 00:19:57;;;;;;;7.72;6.22;;;15.30;99.90;;;;;;4982776;28;20038;-75
2022/06/05 00:22:23;;;;;;;8.52;6.88;;;15.30;99.90;;;;;;4987136;28;20026;-74
2022/06/05 00:24:48;;;;;;;11.35;6.30;;;15.30;99.90;;;;;;4981420;28;20507;-74
2022/06/05 00:27:37;;;;;;;9.00;6.40;;;15.20;99.90;;;;;;4982341;28;20037;-75
2022/06/05 00:30:29;;;;;;;8.45;6.22;;;15.20;99.90;;;;;;4984113;28;20445;-74
2022/06/05 00:33:15;;;;;;;8.98;6.20;;;15.20;99.90;;;;;;4985259;28;20125;-75
2022/06/05 00:35:52;;;;;;;9.38;6.63;;;15.20;99.90;;;;;;4979577;28;20112;-74
2022/06/05 00:38:40;;;;;;;11.18;6.80;;;15.10;99.90;;;;;;4983627;28;20043;-74
2022/06/05 00:41:25;;;;;;;10.57;7.18;;;15.10;99.90;;;;;;4989721;28;20022;-75
2022/06/05 00:43:56;;;;;;;8.63;6.78;;;15.00;99.90;;;;;;4983671;28;20030;-74
2022/06/05 00:46:23;;;;;;;8.82;6.93;;;15.00;99.90;;;;;;4984056;28;20026;-74
2022/06/05 00:48:50;;;;;;;10.45;6.63;;;14.90;99.90;;;;;;4963733;28;20057;-74
2022/06/05 00:51:16;;;;;;;11.10;7.65;;;14.90;99.90;;;;;;4981492;28;20026;-74
2022/06/05 00:53:42;;;;;;;8.77;7.03;;;14.90;99.90;;;;;;4987094;28;20081;-75
2022/06/05 00:56:11;;;;;;;8.80;7.43;;;14.80;99.90;;;;;;4984405;28;20161;-75
2022/06/05 00:58:37;;;;;;;10.63;6.85;;;14.80;99.90;;;;;;4982036;28;20394;-75
2022/06/05 01:01:03;;;;;;;9.07;7.07;;;14.80;99.90;;;;;;4984280;28;20031;-75
2022/06/05 01:03:30;;;;;;;9.13;7.50;;;14.80;99.90;;;;;;4982517;28;20110;-75
2022/06/05 01:05:56;;;;;;;9.93;7.18;;;14.80;99.90;;;;;;4965835;28;20406;-75
2022/06/05 01:08:22;;;;;;;8.82;6.93;;;14.80;99.90;;;;;;4983793;28;20030;-75
2022/06/05 01:11:21;;;;;;;10.48;7.70;;;14.80;99.90;;;;;;4987769;28;20031;-75
2022/06/05 01:14:12;;;;;;;10.48;7.43;;;14.80;99.90;;;;;;4990070;28;20109;-75
2022/06/05 01:16:53;;;;;;;10.75;7.80;;;14.70;99.90;;;;;;4988755;28;20042;-75
2022/06/05 01:19:25;;;;;;;12.10;7.90;;;14.70;99.90;;;;;;4987397;28;20046;-75
2022/06/05 01:22:13;;;;;;;12.38;8.27;;;14.70;99.90;;;;;;4980201;28;20030;-75
2022/06/05 01:24:50;;;;;;;9.90;8.00;;;14.70;99.90;;;;;;4976740;28;20030;-75
2022/06/05 01:27:22;;;;;;;10.32;7.35;;;14.60;99.90;;;;;;4990048;28;20397;-75
2022/06/05 01:29:53;;;;;;;9.50;7.57;;;14.60;99.90;;;;;;4988166;28;20564;-75
2022/06/05 01:32:40;;;;;;;10.48;7.97;;;14.60;99.90;;;;;;4971059;28;20026;-75
2022/06/05 01:35:31;;;;;;;12.88;8.98;;;14.60;99.90;;;;;;4985298;28;20026;-74
2022/06/05 01:38:29;;;;;;;12.23;7.78;;;14.60;99.90;;;;;;4988957;28;20038;-76
2022/06/05 01:41:00;;;;;;;10.63;7.75;;;14.60;99.90;;;;;;4968316;28;20046;-76
2022/06/05 01:43:32;;;;;;;11.48;8.48;;;14.60;99.90;;;;;;4981858;28;20037;-75
2022/06/05 01:46:07;;;;;;;10.90;8.30;;;14.60;99.90;;;;;;4983538;28;20034;-75
2022/06/05 01:48:45;;;;;;;10.32;8.00;;;14.50;99.90;;;;;;4987195;28;20038;-75
2022/06/05 01:51:19;;;;;;;10.15;7.93;;;14.40;99.90;;;;;;4988526;28;20109;-75
2022/06/05 01:53:49;;;;;;;12.63;9.75;;;14.40;99.90;;;;;;4987565;28;20053;-74
2022/06/05 01:56:32;;;;;;;11.57;8.82;;;14.40;99.90;;;;;;4989849;28;20034;-75
2022/06/05 01:59:13;;;;;;;12.13;9.23;;;14.40;99.90;;;;;;4985294;28;20049;-74
2022/06/05 02:01:43;;;;;;;11.88;8.82;;;14.40;99.90;;;;;;4984248;28;20034;-74
2022/06/05 02:04:18;;;;;;;13.27;8.83;;;14.40;99.90;;;;;;4986774;28;20058;-74
2022/06/05 02:06:53;;;;;;;12.75;8.68;;;14.30;99.90;;;;;;4986619;28;20289;-75
2022/06/05 02:09:36;;;;;;;16.05;8.80;;;14.30;99.90;;;;;;4989612;28;20026;-74
2022/06/05 02:12:04;;;;;;;12.25;8.95;;;14.30;99.90;;;;;;4985591;28;20094;-75
2022/06/05 02:14:31;;;;;;;13.43;9.10;;;14.20;99.90;;;;;;4986698;28;20386;-75
2022/06/05 02:16:58;;;;;;;11.48;8.30;;;14.20;99.90;;;;;;4982275;28;20447;-74
2022/06/05 02:19:24;;;;;;;10.50;9.25;;;14.30;99.90;;;;;;4986072;28;20498;-74
2022/06/05 02:21:57;;;;;;;14.85;9.63;;;14.30;99.90;;;;;;4989986;28;20030;-74
2022/06/05 02:24:22;;;;;;;12.82;9.10;;;14.20;99.90;;;;;;4984946;28;20022;-75
2022/06/05 02:26:48;;;;;;;11.65;8.15;;;14.20;99.90;;;;;;4984374;28;20475;-74
2022/06/05 02:29:19;;;;;;;10.73;8.57;;;14.20;99.90;;;;;;4986535;28;20148;-74
2022/06/05 02:32:02;;;;;;;12.10;8.43;;;14.20;99.90;;;;;;4983749;28;20134;-74
2022/06/05 02:34:44;;;;;;;12.40;9.10;;;14.20;99.90;;;;;;4988012;28;20030;-74
2022/06/05 02:37:43;;;;;;;12.67;8.60;;;14.10;99.90;;;;;;4987382;28;20038;-74
2022/06/05 02:40:20;;;;;;;11.13;8.35;;;14.10;99.90;;;;;;4986550;28;20398;-74
2022/06/05 02:43:13;;;;;;;10.35;8.07;;;14.10;99.90;;;;;;4982327;28;20031;-74
2022/06/05 02:45:56;;;;;;;11.82;8.30;;;14.00;99.90;;;;;;4988752;28;20025;-75
2022/06/05 02:48:41;;;;;;;11.40;8.70;;;14.10;99.90;;;;;;4984031;28;20177;-74
2022/06/05 02:51:22;;;;;;;13.77;9.02;;;14.00;99.90;;;;;;4984666;28;20096;-74
2022/06/05 02:53:54;;;;;;;12.70;8.93;;;14.10;99.90;;;;;;4990600;28;20088;-74
2022/06/05 02:56:21;;;;;;;12.85;8.82;;;14.10;99.90;;;;;;4987570;28;20066;-74
2022/06/05 02:58:49;;;;;;;10.50;8.40;;;14.00;99.90;;;;;;4983233;28;20030;-74
2022/06/05 03:04:00;;;;;;;12.48;9.43;;;14.00;99.90;;;;;;4987507;28;20023;-74
2022/06/05 03:06:31;;;;;;;11.45;8.77;;;14.00;99.90;;;;;;4984811;28;20077;-75
2022/06/05 03:08:57;;;;;;;13.43;8.95;;;14.00;99.90;;;;;;4987285;28;20026;-75
2022/06/05 03:11:23;;;;;;;12.20;9.27;;;14.00;99.90;;;;;;4984025;28;20031;-74
2022/06/05 03:13:49;;;;;;;11.45;8.90;;;13.90;99.90;;;;;;4988885;28;20031;-74
2022/06/05 03:16:14;;;;;;;12.27;8.95;;;13.90;99.90;;;;;;4988248;28;20552;-75
2022/06/05 03:18:40;;;;;;;12.95;9.25;;;14.00;99.90;;;;;;4963079;28;20461;-74
2022/06/05 03:21:06;;;;;;;13.35;9.75;;;14.00;99.90;;;;;;4984101;28;20030;-75
2022/06/05 03:23:32;;;;;;;14.82;9.77;;;13.90;99.90;;;;;;4986231;28;20033;-75
2022/06/05 03:26:00;;;;;;;12.65;9.07;;;13.90;99.90;;;;;;4984502;28;20038;-75
2022/06/05 03:28:25;;;;;;;11.45;9.32;;;13.90;99.90;;;;;;4984618;28;20030;-75
2022/06/05 03:30:52;;;;;;;12.63;9.63;;;13.90;99.90;;;;;;4984203;28;20121;-75
2022/06/05 03:33:19;;;;;;;13.80;9.85;;;14.00;99.90;;;;;;4985232;28;20038;-75
2022/06/05 03:35:46;;;;;;;12.90;9.48;;;13.90;99.90;;;;;;4986968;28;20040;-75
2022/06/05 03:38:14;;;;;;;15.48;9.85;;;13.90;99.90;;;;;;4983772;28;20406;-75
2022/06/05 03:40:41;;;;;;;13.48;9.77;;;13.90;99.90;;;;;;4983057;28;20691;-75
2022/06/05 03:43:08;;;;;;;13.30;9.50;;;13.90;99.90;;;;;;4987795;28;20034;-75
2022/06/05 03:45:34;;;;;;;13.68;9.68;;;13.90;99.90;;;;;;4983467;28;20050;-74
2022/06/05 03:47:59;;;;;;;13.68;9.35;;;13.90;99.90;;;;;;4981713;28;20058;-74
2022/06/05 03:50:25;;;;;;;13.13;9.57;;;13.90;99.90;;;;;;4986427;28;20033;-75
2022/06/05 03:52:51;;;;;;;12.93;10.05;;;13.90;99.90;;;;;;4986613;28;20030;-75
2022/06/05 03:55:20;;;;;;;13.63;8.88;;;13.90;99.90;;;;;;4981831;28;20037;-75
2022/06/05 03:57:46;;;;;;;12.25;8.82;;;13.90;99.90;;;;;;4980305;28;20027;-75
2022/06/05 04:00:15;;;;;;;13.85;9.75;;;14.00;99.90;;;;;;4983827;28;20109;-75
2022/06/05 04:02:41;;;;;;;16.67;10.48;;;14.00;99.90;;;;;;4983961;28;20026;-74
2022/06/05 04:05:10;;;;;;;11.82;9.15;;;14.00;99.90;;;;;;4988319;28;20109;-74
2022/06/05 04:07:36;;;;;;;12.48;9.35;;;14.00;99.90;;;;;;4977252;28;20056;-74
2022/06/05 04:10:02;;;;;;;12.27;9.38;;;14.00;99.90;;;;;;4986585;28;20053;-74
2022/06/05 04:12:28;;;;;;;14.68;9.80;;;14.10;99.90;;;;;;4986121;28;20042;-74
2022/06/05 04:14:54;;;;;;;11.68;8.85;;;14.00;99.90;;;;;;4983645;28;20049;-74
2022/06/05 04:17:19;;;;;;;12.43;9.30;;;14.00;99.90;;;;;;4983413;28;20034;-74
2022/06/05 04:19:45;;;;;;;13.40;9.95;;;14.10;99.90;;;;;;4983634;28;20029;-74
2022/06/05 04:22:11;;;;;;;12.73;9.43;;;14.10;99.90;;;;;;4984321;28;20074;-75
2022/06/05 04:24:37;;;;;;;12.23;9.68;;;14.10;99.90;;;;;;4986049;28;20025;-77
2022/06/05 04:27:03;;;;;;;14.60;9.85;;;14.20;99.90;;;;;;4983547;28;20022;-75
2022/06/05 04:29:29;;;;;;;12.50;10.10;;;14.20;99.90;;;;;;4984453;28;20612;-75
2022/06/05 04:31:54;;;;;;;14.60;9.77;;;14.30;99.90;;;;;;4983968;28;20034;-78
2022/06/05 04:34:25;;;;;;;12.23;9.13;;;14.30;99.90;;;;;;4985550;28;20030;-75
2022/06/05 04:36:51;;;;;;;14.20;9.88;;;14.40;99.90;;;;;;4986075;28;20026;-74
2022/06/05 04:39:17;;;;;;;15.90;10.05;;;14.40;99.90;;;;;;4984693;28;20034;-75
2022/06/05 04:41:43;;;;;;;12.75;10.02;;;14.40;99.90;;;;;;4986541;28;20030;-75
2022/06/05 04:44:12;;;;;;;12.88;9.40;;;14.50;99.90;;;;;;4985725;28;20030;-75
2022/06/05 04:46:38;;;;;;;11.55;8.90;;;14.50;99.90;;;;;;4979880;28;20122;-75
2022/06/05 04:49:06;;;;;;;15.50;10.40;;;14.50;99.90;;;;;;4983634;28;20149;-76
2022/06/05 04:51:33;;;;;;;13.65;10.23;;;14.60;99.90;;;;;;4968125;28;20031;-75
2022/06/05 04:54:01;;;;;;;14.60;9.40;;;14.60;99.90;;;;;;4981612;28;20042;-75
2022/06/05 04:56:27;;;;;;;12.57;9.10;;;14.70;99.90;;;;;;4982331;28;20086;-76
2022/06/05 04:58:54;;;;;;;14.63;10.32;;;14.70;99.90;;;;;;4983116;28;20033;-74
2022/06/05 05:01:29;;;;;;;13.68;9.10;;;14.80;99.90;;;;;;4984807;28;20022;-77
2022/06/05 05:03:59;;;;;;;13.95;9.18;;;14.80;99.90;;;;;;4987510;28;20107;-75
2022/06/05 05:06:26;;;;;;;12.07;9.35;;;14.80;99.90;;;;;;4982247;28;20023;-75
2022/06/05 05:08:52;;;;;;;13.60;9.65;;;14.90;99.90;;;;;;4982740;28;20034;-75
2022/06/05 05:11:19;;;;;;;13.32;9.82;;;14.90;99.90;;;;;;4981573;28;20026;-75
2022/06/05 05:13:45;;;;;;;13.30;9.93;;;15.00;99.90;;;;;;4982053;28;20026;-75
2022/06/05 05:16:11;;;;;;;16.13;9.93;;;15.10;99.90;;;;;;4985680;28;20042;-75
2022/06/05 05:18:37;;;;;;;12.52;9.48;;;15.10;99.90;;;;;;4981416;28;20035;-74
2022/06/05 05:21:10;;;;;;;13.65;9.50;;;15.20;99.90;;;;;;4983550;28;20517;-75
2022/06/05 05:23:36;;;;;;;13.48;9.90;;;15.20;99.90;;;;;;4985338;28;20050;-76
2022/06/05 05:26:15;;;;;;;14.00;9.63;;;15.20;99.90;;;;;;4993572;28;20054;-75
2022/06/05 05:28:42;;;;;;;14.02;9.43;;;15.30;99.90;;;;;;4986374;28;20034;-75
2022/06/05 05:31:17;;;;;;;13.82;8.90;;;15.30;99.90;;;;;;4983438;28;20073;-75
2022/06/05 05:33:43;;;;;;;12.98;10.40;;;15.40;99.90;;;;;;4986306;28;20132;-75
2022/06/05 05:36:09;;;;;;;14.02;9.57;;;15.50;99.90;;;;;;4986152;28;20027;-75
2022/06/05 05:38:36;;;;;;;12.45;8.98;;;15.50;99.90;;;;;;4974630;28;20035;-75
2022/06/05 05:43:46;;;;;;;11.07;8.55;;;15.60;99.90;;;;;;4980619;28;20019;-75
2022/06/05 05:46:14;;;;;;;12.00;8.90;;;15.70;99.90;;;;;;4981330;28;20026;-75
2022/06/05 05:48:40;;;;;;;10.57;8.93;;;15.70;99.90;;;;;;4977240;28;20494;-75
2022/06/05 05:51:13;;;;;;;14.20;9.02;;;15.80;99.90;;;;;;4978149;28;20061;-75
2022/06/05 05:53:39;;;;;;;10.77;8.20;;;15.80;99.90;;;;;;4988031;28;20142;-74
2022/06/05 05:56:07;;;;;;;10.88;7.97;;;15.90;99.90;;;;;;4985371;28;20038;-74
2022/06/05 05:58:35;;;;;;;9.07;7.57;;;15.90;99.90;;;;;;4978304;28;20037;-75
2022/06/05 06:01:03;;;;;;;9.57;8.07;;;16.00;99.90;;;;;;4974637;28;20060;-74
2022/06/05 06:03:29;;;;;;;11.15;7.63;;;16.00;99.90;;;;;;4978997;28;20022;-74
2022/06/05 06:05:58;;;;;;;10.35;7.28;;;16.10;99.90;;;;;;4960763;28;20411;-74
2022/06/05 06:08:24;;;;;;;12.05;7.82;;;16.20;99.90;;;;;;4978266;28;20095;-75
2022/06/05 06:10:50;;;;;;;13.35;7.75;;;16.20;99.90;;;;;;4978682;28;20062;-75
2022/06/05 06:13:16;;;;;;;11.40;7.25;;;16.30;99.90;;;;;;4976096;28;20109;-75
2022/06/05 06:15:41;;;;;;;10.00;7.78;;;16.30;99.90;;;;;;4982262;28;20410;-75
2022/06/05 06:18:07;;;;;;;8.85;7.22;;;16.40;99.90;;;;;;4979612;28;20035;-75
2022/06/05 06:20:33;;;;;;;9.07;6.32;;;16.50;99.90;;;;;;4980832;28;20474;-75
2022/06/05 06:23:00;;;;;;;9.00;6.90;;;16.50;99.90;;;;;;4992785;28;20102;-75
2022/06/05 06:25:26;;;;;;;9.55;7.00;;;16.60;99.90;;;;;;4979711;28;20022;-75
2022/06/05 06:27:51;;;;;;;9.90;7.18;;;16.70;99.90;;;;;;4979939;28;20370;-75
2022/06/05 06:30:17;;;;;;;8.38;6.30;;;16.60;99.90;;;;;;4986475;28;20635;-75
2022/06/05 06:32:43;;;;;;;8.77;6.22;;;16.70;99.90;;;;;;4977283;28;20640;-75
2022/06/05 06:35:09;;;;;;;7.50;5.90;;;16.80;99.90;;;;;;4980654;28;20072;-76
2022/06/05 06:37:35;;;;;;;7.03;5.47;;;16.90;99.90;;;;;;4982814;28;20030;-75
2022/06/05 06:40:01;;;;;;;6.43;5.72;;;16.90;99.90;;;;;;4979741;28;20035;-74
2022/06/05 06:42:26;;;;;;;11.10;5.95;;;17.00;99.90;;;;;;4983225;28;20466;-77
2022/06/05 06:44:52;;;;;;;7.65;5.97;;;17.00;99.90;;;;;;4978940;28;20026;-75
2022/06/05 06:47:18;;;;;;;7.38;5.70;;;17.10;99.90;;;;;;4983455;28;20023;-75
2022/06/05 06:49:44;;;;;;;8.50;5.85;;;17.10;99.90;;;;;;4978877;28;20026;-75
2022/06/05 06:52:09;;;;;;;9.23;5.63;;;17.20;99.90;;;;;;4972684;28;20089;-75
2022/06/05 06:54:35;;;;;;;7.85;5.72;;;17.30;99.90;;;;;;4974302;28;20440;-74
2022/06/05 06:57:01;;;;;;;8.02;5.03;;;17.30;99.90;;;;;;4974040;28;20483;-75
2022/06/05 06:59:28;;;;;;;6.25;5.15;;;17.40;99.90;;;;;;4973205;28;20035;-74
2022/06/05 07:01:54;;;;;;;7.93;5.40;;;17.40;99.90;;;;;;4974249;28;20035;-75
2022/06/05 07:04:21;;;;;;;9.32;5.70;;;17.50;99.90;;;;;;4980589;28;20036;-75
2022/06/05 07:06:47;;;;;;;6.35;5.10;;;17.50;99.90;;;;;;4978084;28;20447;-76
2022/06/05 07:09:14;;;;;;;6.10;4.78;;;17.60;99.90;;;;;;4972590;28;20034;-76
2022/06/05 07:11:41;;;;;;;7.75;4.60;;;17.70;99.90;;;;;;4977471;28;20043;-76
2022/06/05 07:14:07;;;;;;;8.15;5.05;;;17.80;99.90;;;;;;4980004;28;20039;-75
2022/06/05 07:16:33;;;;;;;7.30;5.05;;;17.80;99.90;;;;;;4974277;28;20216;-77
2022/06/05 07:18:58;;;;;;;6.05;4.80;;;17.90;99.90;;;;;;4972073;28;20034;-75
2022/06/05 07:21:25;;;;;;;8.63;4.65;;;18.00;99.90;;;;;;4970779;28;20546;-74
2022/06/05 07:23:51;;;;;;;5.78;4.80;;;18.00;99.90;;;;;;4974867;28;20491;-75
2022/06/05 07:26:19;;;;;;;8.30;4.53;;;18.10;99.90;;;;;;4977647;28;20033;-75
2022/06/05 07:28:46;;;;;;;7.47;4.72;;;18.10;99.90;;;;;;4979461;28;20031;-75
2022/06/05 07:31:14;;;;;;;6.93;4.10;;;18.20;99.90;;;;;;4975630;28;20505;-75
2022/06/05 07:33:43;;;;;;;5.40;4.00;;;18.30;99.90;;;;;;4975903;28;20034;-75
2022/06/05 07:36:13;;;;;;;5.50;4.70;;;18.30;99.90;;;;;;4984881;28;20452;-76
2022/06/05 07:38:40;;;;;;;6.32;3.95;;;18.30;99.90;;;;;;4976213;28;20122;-75
2022/06/05 07:41:13;;;;;;;5.15;4.22;;;18.40;99.90;;;;;;4978104;28;20113;-75
2022/06/05 07:43:40;;;;;;;5.25;4.20;;;18.40;99.90;;;;;;4982902;28;20022;-75
2022/06/05 07:46:06;;;;;;;6.60;4.75;;;18.40;99.90;;;;;;4980902;28;20027;-75
2022/06/05 07:48:32;;;;;;;4.20;3.80;;;18.50;99.90;;;;;;4972111;28;20034;-76
2022/06/05 07:56:42;;;;;;;7.00;4.82;;;18.80;99.90;;;;;;4977219;28;20046;-75
2022/06/05 07:59:08;;;;;;;5.28;3.90;;;18.90;99.40;;;;;;4979653;28;20027;-75
2022/06/05 08:01:35;;;;;;;7.70;4.93;;;19.00;99.40;;;;;;4974262;28;20103;-77
2022/06/05 08:04:01;;;;;;;7.43;4.22;;;19.00;98.70;;;;;;4979610;28;20125;-76
2022/06/05 08:06:27;;;;;;;5.15;3.83;;;19.10;98.70;;;;;;4963061;28;20034;-78
2022/06/05 08:08:53;;;;;;;4.15;3.53;;;19.20;97.70;;;;;;4963965;28;20033;-74
2022/06/05 08:11:20;;;;;;;5.22;3.58;;;19.20;98.00;;;;;;4976368;28;20041;-77
2022/06/05 08:13:45;;;;;;;5.13;3.50;;;19.20;98.10;;;;;;4979896;28;20071;-75
2022/06/05 08:16:12;;;;;;;5.05;3.47;;;19.20;97.00;;;;;;4979969;28;20153;-76
2022/06/05 08:18:39;;;;;;;5.40;3.42;;;19.30;97.00;;;;;;4973272;28;20041;-76
2022/06/05 08:21:07;;;;;;;5.22;3.65;;;19.40;97.00;;;;;;4982380;28;20798;-75
2022/06/05 08:23:32;;;;;;;5.90;3.45;;;19.50;96.70;;;;;;4978651;28;20510;-78
2022/06/05 08:25:58;;;;;;;5.38;3.60;;;19.50;96.60;;;;;;4975048;28;20038;-78
2022/06/05 08:28:25;;;;;;;4.07;3.22;;;19.60;96.40;;;;;;4972412;28;20035;-81
2022/06/05 08:30:52;;;;;;;5.43;3.50;;;19.60;95.70;;;;;;4975189;28;20030;-83
2022/06/05 08:33:20;;;;;;;3.90;3.28;;;19.70;94.90;;;;;;4976066;28;20030;-80
2022/06/05 08:35:49;;;;;;;5.38;3.45;;;19.80;95.20;;;;;;4979523;28;20034;-79
2022/06/05 08:41:27;;;;;;;4.00;3.05;;;19.90;95.10;;;;;;4981410;28;20041;-78
2022/06/05 08:44:08;;;;;;;4.32;3.47;;;19.90;95.40;;;;;;4984430;28;20026;-79
2022/06/05 08:46:37;;;;;;;4.55;3.10;;;20.00;94.80;;;;;;4985027;28;20486;-77
2022/06/05 08:49:08;;;;;;;4.00;2.97;;;20.20;94.80;;;;;;4986116;28;20030;-78
2022/06/05 08:51:58;;;;;;;5.30;3.38;;;20.20;94.60;;;;;;4979845;28;20035;-79
2022/06/05 08:54:59;;;;;;;5.03;3.40;;;20.30;94.10;;;;;;4980242;28;20533;-79
2022/06/05 08:57:35;;;;;;;3.40;3.10;;;20.40;94.10;;;;;;5001992;28;20022;-77
2022/06/05 09:00:17;;;;;;;4.60;3.33;;;20.40;93.20;;;;;;4983742;28;20038;-78
2022/06/05 09:02:54;;;;;;;5.88;3.80;;;20.40;92.50;;;;;;5000989;28;20041;-79
2022/06/05 09:05:35;;;;;;;3.05;2.70;;;20.50;92.50;;;;;;4979561;28;20035;-79
2022/06/05 09:08:17;;;;;;;4.28;3.05;;;20.60;92.60;;;;;;4965685;28;20054;-79
2022/06/05 09:10:49;;;;;;;6.45;3.53;;;20.60;91.70;;;;;;4965179;28;20018;-75
2022/06/05 09:13:22;;;;;;;3.15;2.78;;;20.70;91.80;;;;;;4981611;28;20105;-74
2022/06/05 09:15:57;;;;;;;5.28;3.20;;;20.70;91.80;;;;;;4983001;28;20033;-76
2022/06/05 09:18:25;;;;;;;3.45;3.00;;;20.70;91.40;;;;;;4979584;28;20031;-75
2022/06/05 09:20:56;;;;;;;4.07;2.95;;;20.70;91.40;;;;;;4978269;28;20114;-74
2022/06/05 09:23:56;;;;;;;4.60;3.17;;;20.80;90.40;;;;;;4989983;28;20022;-75
2022/06/05 09:26:50;;;;;;;3.50;2.90;;;20.90;90.70;;;;;;4980390;28;20114;-75
2022/06/05 09:29:31;;;;;;;4.18;2.88;;;21.00;90.10;;;;;;4972229;28;20038;-75
2022/06/05 09:32:09;;;;;;;4.63;3.05;;;21.00;89.50;;;;;;4967925;28;20042;-76
2022/06/05 09:34:38;;;;;;;4.43;2.70;;;21.00;88.90;;;;;;4974202;28;20033;-75
2022/06/05 09:37:17;;;;;;;3.97;3.05;;;21.10;89.60;;;;;;4976226;28;20054;-76
2022/06/05 09:39:51;;;;;;;4.70;3.03;;;21.20;87.50;;;;;;4977668;28;20038;-74
2022/06/05 09:42:29;;;;;;;3.53;3.10;;;21.20;87.20;;;;;;4974479;28;20022;-76
2022/06/05 09:45:00;;;;;;;4.22;2.58;;;21.20;86.10;;;;;;4974740;28;20026;-77
2022/06/05 09:47:55;;;;;;;4.07;3.00;;;21.30;86.60;;;;;;4982906;28;20049;-76
2022/06/05 09:50:25;;;;;;;3.42;2.75;;;21.40;86.90;;;;;;4972551;28;20037;-77
2022/06/05 09:52:52;;;;;;;3.53;2.83;;;21.40;86.20;;;;;;4984580;28;20040;-75
2022/06/05 09:55:34;;;;;;;3.10;2.72;;;21.40;85.50;;;;;;4977750;28;20039;-76
2022/06/05 09:58:39;;;;;;;3.72;2.90;;;21.50;86.20;;;;;;4979992;28;20063;-75
2022/06/05 10:01:25;;;;;;;3.80;2.75;;;21.70;86.30;;;;;;4978016;28;20228;-76
2022/06/05 10:03:52;;;;;;;3.95;3.00;;;21.90;84.00;;;;;;4980334;28;20122;-76
2022/06/05 10:06:34;;;;;;;3.78;2.75;;;22.10;83.70;;;;;;4984086;28;20399;-77
2022/06/05 10:09:07;;;;;;;2.90;2.60;;;22.20;82.30;;;;;;4988253;28;20034;-76
2022/06/05 10:11:55;;;;;;;3.50;2.80;;;22.20;80.10;;;;;;4958869;28;20031;-77
2022/06/05 10:14:30;;;;;;;6.13;2.78;;;22.30;80.60;;;;;;4983300;28;20031;-76
2022/06/05 10:17:30;;;;;;;4.07;3.05;;;22.50;80.90;;;;;;4975684;28;20027;-75
2022/06/05 10:20:13;;;;;;;2.90;2.60;;;22.50;78.40;;;;;;4983563;28;20055;-76
2022/06/05 10:23:04;;;;;;;3.53;2.65;;;22.60;78.90;;;;;;4999607;28;20035;-74
2022/06/05 10:25:40;;;;;;;4.75;3.20;;;22.70;81.60;;;;;;4977678;28;21352;-76
2022/06/05 10:28:19;;;;;;;7.05;2.80;;;22.80;81.70;;;;;;4981273;28;20109;-77
2022/06/05 10:30:56;;;;;;;5.70;3.22;;;22.90;82.00;;;;;;4966531;28;20027;-72
2022/06/05 10:33:28;;;;;;;3.03;2.72;;;23.00;82.10;;;;;;4981043;28;20034;-75
2022/06/05 10:36:06;;;;;;;4.07;3.10;;;23.10;82.00;;;;;;4986019;28;20445;-72
2022/06/05 10:38:39;;;;;;;4.82;2.90;;;23.10;80.50;;;;;;4981012;28;20038;-75
2022/06/05 10:41:40;;;;;;;4.18;3.40;;;23.10;81.00;;;;;;4974899;28;20117;-74
2022/06/05 10:44:25;;;;;;;5.03;3.50;;;23.20;79.80;;;;;;4960337;28;20041;-74
2022/06/05 10:47:26;;;;;;;5.07;3.50;;;23.20;80.60;;;;;;4987159;28;20030;-75
2022/06/05 10:50:07;;;;;;;;;;;23.30;77.50;;;;;;4981330;28;20038;-75
2022/06/05 10:52:56;;;;;;;4.03;3.08;;;23.30;77.10;;;;;;4988588;28;19910;-75
2022/06/05 10:56:11;;;;;;;3.60;3.30;;;23.40;77.60;;;;;;4979755;28;20030;-75
2022/06/05 10:59:05;;;;;;;3.95;3.00;;;23.50;79.00;;;;;;4966489;28;20038;-75
2022/06/05 11:02:12;;;;;;;4.07;3.10;;;23.60;75.00;;;;;;4968143;28;20133;-75
2022/06/05 11:04:57;;;;;;;4.30;3.60;;;23.80;75.20;;;;;;4958380;28;20503;-76
2022/06/05 11:07:51;;;;;;;4.10;3.53;;;23.90;74.40;;;;;;4963639;28;20039;-76
2022/06/05 11:13:51;;;;;;;4.15;2.97;;;24.30;71.00;;;;;;4966219;28;20554;-76
2022/06/05 11:16:35;;;;;;;3.10;2.72;;;24.60;70.60;;;;;;4967587;28;20054;-76
2022/06/05 11:19:21;;;;;;;4.07;3.15;;;25.10;70.40;;;;;;4971104;28;20069;-75
2022/06/05 11:21:50;;;;;;;3.28;2.97;;;26.30;68.40;;;;;;4963984;28;20027;-76
2022/06/05 11:24:25;;;;;;;3.60;2.90;;;27.90;65.90;;;;;;4949749;28;20039;-76
2022/06/05 11:26:58;;;;;;;3.13;2.80;;;29.30;61.40;;;;;;4965158;28;20027;-75
2022/06/05 11:29:32;;;;;;;2.88;2.42;;;30.20;55.70;;;;;;4979323;28;20165;-76
2022/06/05 11:32:17;;;;;;;3.47;2.50;;;30.60;52.00;;;;;;4989190;28;20027;-75
2022/06/05 11:34:57;;;;;;;3.10;2.55;;;31.40;51.20;;;;;;4986748;28;20026;-76
2022/06/05 11:37:47;;;;;;;5.25;2.92;;;32.40;45.40;;;;;;4986815;28;20035;-75
2022/06/05 11:40:20;;;;;;;;;;;33.70;44.00;;;;;;4979367;28;20026;-76
2022/06/05 11:43:10;;;;;;;3.78;2.85;;;34.50;43.30;;;;;;5002247;28;19910;-75
2022/06/05 11:45:44;;;;;;;3.00;2.70;;;34.50;41.00;;;;;;4982972;28;20092;-76
2022/06/05 11:48:31;;;;;;;2.58;2.38;;;34.70;41.00;;;;;;4986626;28;20402;-76
2022/06/05 11:51:09;;;;;;;3.42;2.72;;;35.10;39.80;;;;;;4985385;28;20033;-76
2022/06/05 11:53:43;;;;;;;3.28;2.80;;;35.00;39.60;;;;;;4984697;28;20027;-76
2022/06/05 11:56:46;;;;;;;3.00;2.70;;;34.70;41.10;;;;;;4984364;28;20045;-76
2022/06/05 11:59:34;;;;;;;3.83;2.75;;;34.40;40.40;;;;;;4985749;28;20034;-75
2022/06/05 12:02:09;;;;;;;3.40;2.38;;;34.10;38.80;;;;;;4980269;28;20114;-75
2022/06/05 12:04:44;;;;;;;2.55;2.35;;;33.60;40.90;;;;;;4987920;28;20022;-75
2022/06/05 12:07:13;;;;;;;2.90;2.70;;;33.30;41.20;;;;;;4986588;28;20097;-76
2022/06/05 12:09:54;;;;;;;2.67;2.17;;;33.20;41.00;;;;;;4984668;28;20045;-74
2022/06/05 12:12:24;;;;;;;4.15;2.88;;;32.70;39.90;;;;;;4984562;28;20050;-74
2022/06/05 12:15:02;;;;;;;2.40;2.20;;;32.50;40.60;;;;;;4986865;28;20398;-75
2022/06/05 12:17:39;;;;;;;2.60;2.30;;;32.60;41.00;;;;;;4984241;28;20026;-75
2022/06/05 12:20:09;;;;;;;3.05;2.25;;;32.20;40.20;;;;;;4975446;28;20038;-76
2022/06/05 12:22:52;;;;;;;2.25;2.05;;;31.90;41.10;;;;;;4983998;28;20022;-75
2022/06/05 12:25:56;;;;;;;2.60;2.40;;;31.80;39.90;;;;;;4983690;28;20045;-75
2022/06/05 12:28:47;;;;;;;3.35;2.65;;;31.60;40.60;;;;;;4983208;28;20027;-75
2022/06/05 12:31:29;;;;;;;2.30;2.10;;;31.30;40.50;;;;;;4980386;28;20080;-75
2022/06/05 12:34:13;;;;;;;2.20;2.00;;;31.20;40.80;;;;;;4978855;28;20113;-75
2022/06/05 12:36:51;;;;;;;3.45;1.98;;;31.20;39.80;;;;;;4982946;28;20218;-75
2022/06/05 12:39:29;;;;;;;2.25;2.08;;;31.40;39.70;;;;;;4979522;28;20124;-74
2022/06/05 12:42:22;;;;;;;3.05;2.33;;;32.00;39.40;;;;;;4976342;28;20478;-76
2022/06/05 12:44:57;;;;;;;2.17;1.98;;;32.10;36.20;;;;;;4975995;28;20042;-75
2022/06/05 12:47:38;;;;;;;3.22;1.98;;;31.90;37.10;;;;;;4984027;28;20530;-74
2022/06/05 12:50:35;;;;;;;2.85;1.92;;;32.00;36.50;;;;;;4984900;28;20034;-75
2022/06/05 12:53:04;;;;;;;1.88;1.75;;;31.90;36.60;;;;;;4979709;28;20141;-76
2022/06/05 12:56:01;;;;;;;2.88;1.73;;;31.70;37.00;;;;;;4983676;28;20062;-76
2022/06/05 12:58:43;;;;;;;2.15;1.80;;;31.80;37.00;;;;;;4972238;28;20117;-75
2022/06/05 13:01:17;;;;;;;2.78;1.65;;;32.10;35.60;;;;;;4983738;28;20410;-76
2022/06/05 13:04:06;;;;;;;2.00;1.65;;;32.30;36.60;;;;;;4982423;28;20387;-76
2022/06/05 13:06:53;;;;;;;1.90;1.70;;;32.60;36.60;;;;;;4986458;28;20030;-75
2022/06/05 13:09:39;;;;;;;2.72;1.80;;;33.10;36.50;;;;;;4979078;28;20035;-77
2022/06/05 13:13:01;;;;;;;2.10;1.85;;;33.60;35.70;;;;;;4983395;28;20117;-75
2022/06/05 13:15:30;;;;;;;3.60;2.30;;;33.70;35.60;;;;;;4959349;28;20038;-75
2022/06/05 13:17:56;;;;;;;3.38;1.85;;;33.80;34.70;;;;;;4981444;28;20114;-75
2022/06/05 13:20:34;;;;;;;3.40;2.22;;;33.70;35.50;;;;;;4984167;28;20109;-74
2022/06/05 13:23:24;;;;;;;3.72;2.05;;;33.70;35.70;;;;;;4985951;28;20163;-74
2022/06/05 13:26:02;;;;;;;3.10;1.98;;;33.70;34.70;;;;;;4988567;28;20030;-75
2022/06/05 13:28:40;;;;;;;1.90;1.70;;;33.50;35.30;;;;;;4989222;28;20387;-74
2022/06/05 13:31:26;;;;;;;2.58;1.90;;;32.90;34.20;;;;;;4989901;28;20161;-74
2022/06/05 13:34:31;;;;;;;2.05;1.85;;;32.40;33.70;;;;;;4983966;28;20101;-74
2022/06/05 13:37:13;;;;;;;2.20;2.00;;;31.90;35.60;;;;;;4988821;28;20030;-75